Time;durP1;ratioP1;P1;durP2;ratioP2;P2;SDS_P1;SDS_P2;PMS_P1;PMS_P2;Temp;Humidity;BMP_temperature;BMP_pressure;BME280_temperature;BME280_humidity;BME280_pressure;Samples;Min_cycle;Max_cycle;Signal;HPM_P1;HPM_P2
2022/03/21 00:00:52;;;;;;;25.25;22.60;;;;;;;8.19;61.44;103274.13;4983682;28;20470;-83
2022/03/21 00:03:21;;;;;;;25.30;22.90;;;;;;;7.98;60.77;103224.63;4967364;28;20407;-82
2022/03/21 00:05:48;;;;;;;27.45;23.23;;;;;;;8.20;61.40;103273.19;4966268;28;20486;-82
2022/03/21 00:08:17;;;;;;;27.90;23.65;;;;;;;8.13;61.32;103266.41;4983013;28;20082;-82
2022/03/21 00:10:45;;;;;;;26.98;24.17;;;;;;;8.09;61.70;103270.09;4969028;28;20565;-83
2022/03/21 00:13:15;;;;;;;27.58;24.75;;;;;;;7.65;62.11;103222.28;4984076;28;20111;-82
2022/03/21 00:15:46;;;;;;;26.63;23.92;;;;;;;6.94;62.52;103116.34;4967221;28;20047;-82
2022/03/21 00:18:14;;;;;;;27.85;25.05;;;;;;;7.37;62.43;103186.22;4967632;28;20051;-82
2022/03/21 00:20:42;;;;;;;28.10;24.17;;;;;;;7.76;62.33;103251.84;4982463;28;20046;-82
2022/03/21 00:23:10;;;;;;;28.52;25.55;;;;;;;6.98;62.53;103111.81;4967686;28;20062;-82
2022/03/21 00:25:37;;;;;;;28.77;24.80;;;;;;;7.82;63.06;103270.16;4982795;28;20055;-82
2022/03/21 00:28:06;;;;;;;30.30;24.80;;;;;;;7.83;62.88;103269.22;4966680;28;20081;-82
2022/03/21 00:30:37;;;;;;;26.50;23.80;;;;;;;7.79;62.63;103251.75;4966512;28;20392;-81
2022/03/21 00:33:04;;;;;;;25.10;22.55;;;;;;;7.84;62.26;103262.13;4983237;28;20323;-82
2022/03/21 00:35:31;;;;;;;25.17;22.60;;;;;;;7.89;62.19;103266.38;4966808;28;20085;-80
2022/03/21 00:37:58;;;;;;;25.23;22.52;;;;;;;7.56;61.79;103206.72;4966365;28;20456;-82
2022/03/21 00:40:25;;;;;;;23.95;21.60;;;;;;;7.59;61.47;103217.19;4966076;28;20135;-81
2022/03/21 00:42:52;;;;;;;25.02;22.42;;;;;;;7.91;61.68;103274.22;4982415;28;20141;-81
2022/03/21 00:45:26;;;;;;;24.63;22.23;;;;;;;7.44;61.47;103205.38;4981668;28;20086;-81
2022/03/21 00:47:54;;;;;;;25.27;22.67;;;;;;;7.67;61.56;103258.31;4967223;28;20421;-81
2022/03/21 00:50:22;;;;;;;23.38;20.88;;;;;;;7.83;61.09;103271.88;4981909;28;20405;-81
2022/03/21 00:52:54;;;;;;;24.45;21.85;;;;;;;7.15;61.06;103164.06;4982224;28;20401;-81
2022/03/21 00:55:25;;;;;;;22.58;20.27;;;;;;;7.72;61.15;103268.75;4982245;28;20142;-81
2022/03/21 00:57:52;;;;;;;26.52;20.83;;;;;;;7.32;60.75;103195.22;4985577;28;20068;-81
2022/03/21 01:00:21;;;;;;;22.95;20.55;;;;;;;7.51;61.11;103249.19;4985459;28;20496;-80
2022/03/21 01:02:48;;;;;;;23.98;21.65;;;;;;;7.69;61.47;103260.91;4985417;28;20512;-82
2022/03/21 01:05:15;;;;;;;23.33;20.27;;;;;;;7.65;61.85;103264.59;4985635;28;20061;-81
2022/03/21 01:07:42;;;;;;;23.17;20.67;;;;;;;7.64;61.41;103265.47;5001892;28;20101;-81
2022/03/21 01:10:14;;;;;;;22.98;20.45;;;;;;;7.63;61.34;103266.41;4985729;28;20184;-81
2022/03/21 01:12:42;;;;;;;21.17;19.02;;;;;;;7.56;61.68;103251.66;4986345;28;20477;-82
2022/03/21 01:15:10;;;;;;;23.05;20.45;;;;;;;7.57;61.99;103261.31;4985694;28;20105;-81
2022/03/21 01:17:37;;;;;;;22.95;19.83;;;;;;;7.34;62.02;103223.31;4986477;28;20054;-80
2022/03/21 01:20:05;;;;;;;22.92;19.52;;;;;;;7.36;61.73;103221.50;4985649;28;20141;-80
2022/03/21 01:22:31;;;;;;;20.77;18.58;;;;;;;7.57;61.53;103254.25;4986157;28;20049;-81
2022/03/21 01:24:58;;;;;;;23.00;20.50;;;;;;;7.42;61.62;103231.84;4989199;28;20046;-81
2022/03/21 01:27:24;;;;;;;21.65;19.55;;;;;;;7.61;61.31;103266.44;4990117;28;20702;-81
2022/03/21 01:29:51;;;;;;;24.05;20.70;;;;;;;7.65;61.51;103270.72;4988651;28;20042;-81
2022/03/21 01:32:19;;;;;;;24.08;19.85;;;;;;;7.62;62.02;103272.59;4987572;28;20143;-81
2022/03/21 01:34:45;;;;;;;21.85;19.52;;;;;;;7.63;61.95;103269.91;5005424;28;20144;-80
2022/03/21 01:37:12;;;;;;;21.98;19.67;;;;;;;7.45;61.81;103237.03;4989243;28;20088;-82
2022/03/21 01:39:39;;;;;;;22.02;19.73;;;;;;;7.60;61.66;103274.47;4989155;28;20128;-81
2022/03/21 01:42:06;;;;;;;23.83;19.15;;;;;;;7.57;61.93;103278.03;4990075;28;20054;-81
2022/03/21 01:44:32;;;;;;;22.10;19.77;;;;;;;7.52;61.67;103276.47;4988788;28;20147;-82
2022/03/21 01:46:59;;;;;;;21.73;19.50;;;;;;;7.26;61.88;103230.66;4988835;28;20052;-82
2022/03/21 01:49:26;;;;;;;22.42;20.23;;;;;;;7.49;61.91;103274.78;4989106;28;20435;-81
2022/03/21 01:51:54;;;;;;;23.13;20.85;;;;;;;7.26;61.90;103234.16;4988622;28;20050;-81
2022/03/21 01:57:07;;;;;;;21.77;19.60;;;;;;;7.39;61.59;103258.38;4982251;28;20067;-81
2022/03/21 01:59:36;;;;;;;21.63;19.42;;;;;;;7.47;61.57;103273.97;4969059;28;20053;-81
2022/03/21 02:02:05;;;;;;;22.90;19.27;;;;;;;6.92;62.12;103193.88;4973440;28;20062;-82
2022/03/21 02:04:35;;;;;;;22.45;20.20;;;;;;;7.26;62.19;103251.78;4973306;28;20054;-81
2022/03/21 02:07:02;;;;;;;21.75;19.45;;;;;;;7.12;62.25;103223.16;4969393;28;20047;-81
2022/03/21 02:09:29;;;;;;;22.58;20.38;;;;;;;7.37;62.56;103265.50;4969519;28;20225;-81
2022/03/21 02:11:57;;;;;;;23.35;20.45;;;;;;;7.37;61.68;103270.78;4987063;28;20054;-81
2022/03/21 02:14:24;;;;;;;22.55;20.33;;;;;;;7.38;61.67;103261.94;4978675;28;20114;-81
2022/03/21 02:16:51;;;;;;;22.65;20.25;;;;;;;7.33;61.99;103258.59;4973880;28;20604;-82
2022/03/21 02:19:27;;;;;;;22.70;20.42;;;;;;;7.25;62.15;103240.31;4969619;28;20637;-82
2022/03/21 02:22:24;;;;;;;23.98;19.83;;;;;;;7.29;61.81;103251.69;4969449;28;20046;-81
2022/03/21 02:25:09;;;;;;;27.63;19.70;;;;;;;6.82;62.13;103188.91;4969130;28;20386;-81
2022/03/21 02:27:37;;;;;;;23.23;20.75;;;;;;;6.97;62.33;103228.94;4968568;28;20086;-82
2022/03/21 02:30:05;;;;;;;20.85;18.75;;;;;;;7.17;62.44;103260.88;4968777;28;20588;-82
2022/03/21 02:32:32;;;;;;;22.75;19.33;;;;;;;7.00;62.34;103228.84;4985213;28;20063;-81
2022/03/21 02:34:59;;;;;;;21.83;19.50;;;;;;;7.12;62.43;103259.28;4967912;28;20109;-81
2022/03/21 02:37:26;;;;;;;21.90;19.60;;;;;;;7.06;62.32;103253.28;4969106;28;20141;-82
2022/03/21 02:39:55;;;;;;;20.83;18.63;;;;;;;6.90;62.14;103216.84;4969827;28;20082;-82
2022/03/21 02:42:22;;;;;;;21.85;19.60;;;;;;;6.87;62.18;103219.56;4969528;28;20081;-81
2022/03/21 02:44:49;;;;;;;20.90;18.70;;;;;;;6.86;62.86;103221.34;4985572;28;20046;-82
2022/03/21 02:47:15;;;;;;;25.48;20.23;;;;;;;6.61;61.98;103179.88;4970166;28;20053;-81
2022/03/21 02:49:42;;;;;;;23.23;20.38;;;;;;;6.98;62.11;103252.66;4984763;28;20057;-82
2022/03/21 02:52:12;;;;;;;25.80;19.95;;;;;;;6.98;62.02;103247.38;4968351;28;20137;-82
2022/03/21 02:54:38;;;;;;;23.77;19.23;;;;;;;6.74;61.98;103212.03;4984826;28;20498;-82
2022/03/21 02:57:05;;;;;;;21.50;19.30;;;;;;;6.95;62.53;103247.47;4975849;28;20358;-81
2022/03/21 02:59:32;;;;;;;24.65;18.67;;;;;;;6.93;62.03;103249.28;4987848;28;20054;-82
2022/03/21 03:01:59;;;;;;;20.92;18.77;;;;;;;6.32;62.40;103145.63;4987786;28;20054;-82
2022/03/21 03:04:27;;;;;;;23.15;18.23;;;;;;;6.88;62.10;103245.94;4987947;28;20054;-81
2022/03/21 03:06:54;;;;;;;20.65;18.52;;;;;;;6.85;61.83;103225.78;4987506;28;20141;-81
2022/03/21 03:09:20;;;;;;;20.13;18.23;;;;;;;7.06;60.90;103218.06;4987640;28;20054;-81
2022/03/21 03:11:47;;;;;;;22.42;18.55;;;;;;;7.16;60.31;103230.09;4989017;28;20480;-82
2022/03/21 03:14:14;;;;;;;21.25;19.02;;;;;;;6.81;60.71;103176.59;4987777;28;20675;-82
2022/03/21 03:16:41;;;;;;;21.08;18.63;;;;;;;7.11;61.38;103252.25;4987478;28;20133;-81
2022/03/21 03:19:07;;;;;;;21.48;18.05;;;;;;;7.09;61.08;103264.66;4988526;28;20444;-81
2022/03/21 03:21:43;;;;;;;24.85;19.42;;;;;;;6.99;61.10;103262.31;4987422;28;20090;-81
2022/03/21 03:24:12;;;;;;;20.80;18.70;;;;;;;6.95;61.30;103255.41;4987520;28;20052;-82
2022/03/21 03:26:39;;;;;;;20.17;18.23;;;;;;;6.77;61.36;103227.81;4987344;28;20051;-81
2022/03/21 03:29:05;;;;;;;20.40;18.25;;;;;;;6.79;61.79;103241.78;4987319;28;20089;-82
2022/03/21 03:31:35;;;;;;;21.20;19.00;;;;;;;6.77;61.35;103232.19;4987179;28;20468;-81
2022/03/21 03:34:04;;;;;;;19.77;17.77;;;;;;;6.86;61.11;103231.91;4988160;28;20042;-82
2022/03/21 03:36:31;;;;;;;20.70;18.48;;;;;;;6.29;61.17;103140.44;4987330;28;20125;-81
2022/03/21 03:38:58;;;;;;;21.83;19.13;;;;;;;7.02;60.80;103256.94;4987149;28;20151;-81
2022/03/21 03:41:24;;;;;;;20.08;18.10;;;;;;;6.67;61.25;103204.34;4986531;28;20045;-81
2022/03/21 03:43:51;;;;;;;21.20;19.00;;;;;;;6.89;61.21;103252.94;4986753;28;20111;-82
2022/03/21 03:46:17;;;;;;;20.27;18.27;;;;;;;6.72;61.15;103207.72;4986830;28;20085;-83
2022/03/21 03:48:45;;;;;;;20.23;17.60;;;;;;;6.79;60.92;103235.66;4986811;28;20049;-82
2022/03/21 03:51:13;;;;;;;20.73;18.55;;;;;;;6.74;60.96;103227.00;4988518;28;20560;-82
2022/03/21 03:53:40;;;;;;;20.52;18.42;;;;;;;6.88;60.80;103256.50;4993182;28;20038;-81
2022/03/21 03:56:08;;;;;;;18.65;16.95;;;;;;;6.84;60.46;103254.84;5000186;28;20054;-83
2022/03/21 03:58:35;;;;;;;19.75;17.83;;;;;;;6.80;60.65;103242.69;4990991;28;20047;-82
2022/03/21 04:01:06;;;;;;;19.40;17.40;;;;;;;6.75;60.74;103250.75;4978516;28;20039;-81
2022/03/21 04:03:45;;;;;;;19.70;17.60;;;;;;;6.74;60.87;103246.34;4968074;28;20093;-81
2022/03/21 04:06:22;;;;;;;20.17;18.00;;;;;;;6.74;60.87;103248.13;4967273;28;20047;-81
2022/03/21 04:08:50;;;;;;;19.05;17.23;;;;;;;6.79;61.02;103267.34;4967101;28;20047;-82
2022/03/21 04:11:18;;;;;;;19.63;17.73;;;;;;;6.73;61.23;103259.63;4983705;28;20137;-82
2022/03/21 04:13:46;;;;;;;21.75;17.40;;;;;;;6.58;60.86;103238.06;4983909;28;20142;-83
2022/03/21 04:16:17;;;;;;;19.63;17.73;;;;;;;6.66;60.71;103252.78;4967511;28;20105;-81
2022/03/21 04:18:43;;;;;;;21.27;18.55;;;;;;;6.63;60.90;103259.88;4969126;28;20054;-82
2022/03/21 04:21:25;;;;;;;19.08;17.05;;;;;;;6.61;61.48;103259.06;4984174;28;20053;-81
2022/03/21 04:23:52;;;;;;;19.73;17.65;;;;;;;6.53;61.20;103254.91;4969350;28;20065;-81
2022/03/21 04:26:19;;;;;;;19.95;17.85;;;;;;;6.44;61.12;103240.22;4966379;28;20493;-81
2022/03/21 04:28:45;;;;;;;23.40;18.65;;;;;;;5.94;61.21;103152.88;4967025;28;20374;-82
2022/03/21 04:31:12;;;;;;;23.65;19.90;;;;;;;6.59;61.29;103268.81;4967090;28;20054;-82
2022/03/21 04:33:39;;;;;;;21.80;19.45;;;;;;;6.50;61.56;103261.16;4967255;28;20047;-81
2022/03/21 04:36:06;;;;;;;21.00;18.77;;;;;;;6.32;61.33;103240.59;4966705;28;20394;-82
2022/03/21 04:38:33;;;;;;;22.27;20.02;;;;;;;6.43;61.70;103262.22;4968364;28;20146;-81
2022/03/21 04:40:59;;;;;;;24.40;20.90;;;;;;;6.05;61.10;103189.50;4967984;28;20043;-82
2022/03/21 04:43:26;;;;;;;21.42;19.23;;;;;;;5.86;61.41;103162.75;4967701;28;20508;-82
2022/03/21 04:45:52;;;;;;;23.08;20.17;;;;;;;6.48;61.74;103270.03;4967675;28;21051;-82
2022/03/21 04:48:20;;;;;;;22.35;19.98;;;;;;;6.39;61.41;103279.09;4966594;28;20481;-82
2022/03/21 04:50:47;;;;;;;25.10;20.50;;;;;;;6.21;61.89;103264.63;4966427;28;20138;-81
2022/03/21 04:53:14;;;;;;;21.75;19.42;;;;;;;6.22;61.79;103273.44;4966501;28;20081;-81
2022/03/21 04:55:41;;;;;;;22.27;19.85;;;;;;;6.17;61.95;103271.78;4967847;28;20122;-82
2022/03/21 04:58:08;;;;;;;27.40;22.52;;;;;;;6.17;61.71;103279.69;4984214;28;20064;-81
2022/03/21 05:00:36;;;;;;;21.85;19.55;;;;;;;6.24;62.07;103285.66;4990534;28;20062;-80
2022/03/21 05:03:07;;;;;;;22.50;19.08;;;;;;;5.72;61.79;103202.66;4989925;28;20526;-81
2022/03/21 05:05:42;;;;;;;21.88;19.58;;;;;;;6.16;61.84;103288.50;4990403;28;20042;-81
2022/03/21 05:08:08;;;;;;;22.83;20.38;;;;;;;6.09;61.96;103281.69;4990251;28;20517;-81
2022/03/21 05:10:35;;;;;;;21.38;19.13;;;;;;;5.92;62.27;103266.28;4989827;28;20050;-81
2022/03/21 05:13:03;;;;;;;24.40;20.35;;;;;;;6.06;62.62;103291.44;4990154;28;20124;-82
2022/03/21 05:15:30;;;;;;;23.27;20.73;;;;;;;6.04;62.37;103299.38;4989450;28;20073;-82
2022/03/21 05:17:57;;;;;;;22.10;19.65;;;;;;;6.01;62.54;103298.59;4991508;28;20065;-81
2022/03/21 05:20:25;;;;;;;24.30;19.73;;;;;;;5.96;62.19;103288.19;4989373;28;20125;-81
2022/03/21 05:31:10;;;;;;;22.25;18.17;;;;;;;6.12;61.70;103312.38;4991390;28;20150;-81
2022/03/21 05:36:25;;;;;;;19.38;17.45;;;;;;;6.08;61.65;103308.09;4990803;28;20556;-81
2022/03/21 05:38:52;;;;;;;20.92;18.55;;;;;;;6.03;61.59;103297.66;4989221;28;20351;-81
2022/03/21 05:41:18;;;;;;;21.10;18.40;;;;;;;5.51;61.56;103212.00;4990539;28;20064;-81
2022/03/21 05:43:45;;;;;;;20.83;18.55;;;;;;;6.10;61.65;103304.50;4991051;28;20082;-80
2022/03/21 05:46:12;;;;;;;21.65;18.27;;;;;;;6.16;61.63;103308.72;4989119;28;20142;-82
2022/03/21 05:48:50;;;;;;;19.10;17.25;;;;;;;6.18;61.64;103307.78;4989390;28;20096;-80
2022/03/21 05:51:23;;;;;;;20.58;17.38;;;;;;;6.28;61.09;103318.09;4989081;28;20561;-82
2022/03/21 05:53:51;;;;;;;19.30;17.30;;;;;;;6.34;60.80;103323.22;4988935;28;20137;-83
2022/03/21 05:56:18;;;;;;;18.80;16.63;;;;;;;6.39;60.35;103316.03;4989457;28;20138;-83
2022/03/21 05:58:45;;;;;;;19.75;17.65;;;;;;;6.42;59.43;103326.50;4970237;28;20058;-82
2022/03/21 06:01:12;;;;;;;18.60;16.70;;;;;;;6.45;59.72;103331.66;4971384;28;20051;-82
2022/03/21 06:03:40;;;;;;;27.77;23.42;;;;;;;6.33;59.14;103300.34;4969851;28;20059;-82
2022/03/21 06:06:09;;;;;;;18.75;16.70;;;;;;;6.25;59.01;103286.53;4969691;28;20078;-81
2022/03/21 06:08:36;;;;;;;19.15;17.15;;;;;;;6.46;59.11;103319.34;4971706;28;20104;-81
2022/03/21 06:11:08;;;;;;;19.75;17.65;;;;;;;6.43;59.09;103317.66;4980257;28;20145;-81
2022/03/21 06:13:37;;;;;;;17.65;15.98;;;;;;;6.46;58.50;103306.13;4975846;28;20059;-81
2022/03/21 06:16:04;;;;;;;17.33;15.40;;;;;;;6.56;58.21;103316.41;4970156;28;20564;-81
2022/03/21 06:18:35;;;;;;;19.58;16.75;;;;;;;6.47;58.13;103307.88;4990563;28;20046;-81
2022/03/21 06:21:04;;;;;;;17.55;15.80;;;;;;;6.57;58.20;103315.47;4995415;28;20193;-81
2022/03/21 06:23:31;;;;;;;19.27;15.85;;;;;;;6.51;58.27;103306.91;4996772;28;20074;-81
2022/03/21 06:25:58;;;;;;;17.83;15.93;;;;;;;6.74;58.40;103345.81;4982263;28;20050;-81
2022/03/21 06:28:27;;;;;;;17.98;15.90;;;;;;;6.23;58.31;103256.69;4985718;28;20701;-81
2022/03/21 06:30:54;;;;;;;20.63;17.33;;;;;;;6.83;57.88;103342.91;4969719;28;20328;-82
2022/03/21 06:33:23;;;;;;;17.67;15.88;;;;;;;6.62;58.24;103326.78;4970896;28;20078;-81
2022/03/21 06:35:50;;;;;;;21.83;17.33;;;;;;;6.52;58.36;103301.56;4970795;28;20054;-81
2022/03/21 06:38:18;;;;;;;18.48;16.45;;;;;;;6.54;58.11;103286.56;4970598;28;20039;-80
2022/03/21 06:40:44;;;;;;;18.90;16.65;;;;;;;6.78;57.83;103335.13;4971308;28;20055;-80
2022/03/21 06:43:12;;;;;;;27.25;17.73;;;;;;;6.75;57.42;103308.81;4981646;28;20057;-80
2022/03/21 06:45:39;;;;;;;19.25;17.17;;;;;;;6.82;57.57;103298.91;4989267;28;20080;-81
2022/03/21 06:48:06;;;;;;;20.48;18.05;;;;;;;6.70;57.43;103296.66;4989043;28;20051;-80
2022/03/21 06:50:33;;;;;;;21.23;17.65;;;;;;;7.05;57.48;103349.28;4973065;28;20449;-81
2022/03/21 06:52:59;;;;;;;22.90;17.83;;;;;;;6.56;57.43;103274.19;4986381;28;20065;-82
2022/03/21 06:55:26;;;;;;;20.10;18.15;;;;;;;7.00;57.43;103339.78;4969679;28;20138;-81
2022/03/21 06:57:53;;;;;;;25.73;19.75;;;;;;;7.22;56.97;103355.84;4971118;28;20054;-82
2022/03/21 07:00:20;;;;;;;20.48;17.35;;;;;;;7.20;56.19;103352.38;4969542;28;20571;-79
2022/03/21 07:02:46;;;;;;;20.02;18.02;;;;;;;7.15;56.69;103349.00;4971240;28;20166;-82
2022/03/21 07:05:13;;;;;;;19.60;17.70;;;;;;;6.97;56.31;103324.88;4971336;28;20051;-81
2022/03/21 07:07:40;;;;;;;21.95;19.15;;;;;;;7.30;56.63;103369.66;4969640;28;20119;-82
2022/03/21 07:10:07;;;;;;;23.35;20.08;;;;;;;7.36;55.98;103363.34;4964568;28;20137;-82
2022/03/21 07:12:34;;;;;;;22.83;19.73;;;;;;;7.12;56.19;103338.53;4964881;28;20058;-81
2022/03/21 07:15:02;;;;;;;25.80;19.95;;;;;;;7.21;56.37;103349.69;4950625;28;20047;-83
2022/03/21 07:17:29;;;;;;;23.45;20.95;;;;;;;7.41;56.63;103380.78;4975239;28;20050;-81
2022/03/21 07:19:55;;;;;;;22.13;19.98;;;;;;;7.35;56.84;103365.09;4992220;28;20054;-80
2022/03/21 07:22:22;;;;;;;24.20;21.55;;;;;;;7.51;56.18;103377.84;4995580;28;20476;-83
2022/03/21 07:24:50;;;;;;;26.98;21.67;;;;;;;7.65;55.86;103375.63;4991270;28;20050;-81
2022/03/21 07:27:17;;;;;;;24.77;22.13;;;;;;;7.36;55.80;103332.50;4988635;28;20116;-81
2022/03/21 07:29:43;;;;;;;23.75;21.08;;;;;;;7.70;55.25;103384.28;4988688;28;20141;-80
2022/03/21 07:32:10;;;;;;;28.15;21.45;;;;;;;7.34;55.24;103323.75;4988705;28;20046;-81
2022/03/21 07:34:37;;;;;;;23.23;20.27;;;;;;;7.57;54.99;103367.06;4987164;28;20054;-80
2022/03/21 07:37:04;;;;;;;23.23;20.42;;;;;;;7.40;54.99;103334.13;4983444;28;20050;-82
2022/03/21 07:39:34;;;;;;;23.55;20.80;;;;;;;7.63;55.42;103380.09;4983412;28;20058;-83
2022/03/21 07:42:02;;;;;;;30.90;22.20;;;;;;;7.55;55.42;103359.19;4967930;28;20055;-81
2022/03/21 07:47:17;;;;;;;23.98;21.48;;;;;;;7.92;54.36;103395.00;4969442;28;20042;-81
2022/03/21 07:49:46;;;;;;;24.83;22.17;;;;;;;7.70;53.92;103339.31;4967828;28;20495;-80
2022/03/21 07:52:13;;;;;;;27.33;22.98;;;;;;;7.83;53.75;103363.56;4967121;28;20062;-81
2022/03/21 07:54:40;;;;;;;24.75;22.25;;;;;;;7.72;54.40;103350.72;4966869;28;20055;-81
2022/03/21 07:57:07;;;;;;;25.88;22.23;;;;;;;8.10;53.10;103393.53;4968048;28;20503;-81
2022/03/21 07:59:34;;;;;;;27.05;24.25;;;;;;;7.55;52.92;103301.03;4967802;28;20078;-81
2022/03/21 08:02:05;;;;;;;26.73;23.90;;;;;;;8.02;53.03;103379.69;4967987;28;20070;-82
2022/03/21 08:04:33;;;;;;;29.50;24.80;;;;;;;8.12;53.47;103399.63;4968795;28;20636;-80
2022/03/21 08:07:00;;;;;;;30.33;25.67;;;;;;;8.12;53.40;103383.75;4968910;28;20055;-82
2022/03/21 08:09:30;;;;;;;28.50;23.88;;;;;;;8.08;53.58;103379.47;4968943;28;20141;-81
2022/03/21 08:12:02;;;;;;;22.42;19.52;;;;;;;8.30;53.14;103404.31;4969643;28;20054;-81
2022/03/21 08:14:29;;;;;;;27.23;21.25;;;;;;;7.95;53.00;103339.34;4969086;28;20125;-80
2022/03/21 08:16:56;;;;;;;24.13;21.63;;;;;;;8.34;53.17;103403.25;4970879;28;20386;-80
2022/03/21 08:19:24;;;;;;;23.67;21.00;;;;;;;8.35;52.48;103377.69;4970369;28;20058;-81
2022/03/21 08:21:53;;;;;;;22.17;20.05;;;;;;;8.44;52.30;103389.75;4976227;28;20074;-79
2022/03/21 08:24:21;;;;;;;24.10;21.30;;;;;;;8.46;52.67;103401.13;4979272;28;20051;-81
2022/03/21 08:26:49;;;;;;;23.40;20.75;;;;;;;7.47;51.56;103214.03;4976779;28;20376;-82
2022/03/21 08:29:16;;;;;;;23.33;21.02;;;;;;;8.28;52.21;103345.25;4971497;28;20086;-81
2022/03/21 08:31:43;;;;;;;23.58;20.83;;;;;;;8.08;51.68;103308.94;4969082;28;20070;-80
2022/03/21 08:34:10;;;;;;;23.17;20.67;;;;;;;8.60;51.44;103380.34;4968826;28;20113;-79
2022/03/21 08:36:37;;;;;;;23.13;20.70;;;;;;;8.68;51.70;103372.97;4969274;28;20078;-80
2022/03/21 08:39:04;;;;;;;26.58;21.17;;;;;;;8.37;51.14;103311.44;4984528;28;20541;-81
2022/03/21 08:41:31;;;;;;;24.70;21.27;;;;;;;8.87;51.35;103398.78;4967513;28;20074;-82
2022/03/21 08:43:57;;;;;;;31.05;21.20;;;;;;;8.58;51.38;103358.34;4967973;28;20047;-81
2022/03/21 08:46:24;;;;;;;22.65;20.40;;;;;;;8.84;51.09;103396.25;4967868;28;20504;-81
2022/03/21 08:51:56;;;;;;;26.73;23.05;;;;;;;9.03;50.42;103368.16;4969013;28;20507;-79
2022/03/21 08:54:22;;;;;;;23.60;21.20;;;;;;;9.08;50.38;103379.44;4967166;28;20133;-82
2022/03/21 08:56:49;;;;;;;22.67;18.90;;;;;;;9.01;48.41;103329.38;4967169;28;20045;-82
2022/03/21 08:59:16;;;;;;;22.25;19.85;;;;;;;9.30;48.42;103376.81;4967660;28;20090;-81
2022/03/21 09:01:42;;;;;;;23.67;21.17;;;;;;;9.41;48.33;103389.63;4969089;28;20429;-81
2022/03/21 09:04:10;;;;;;;21.38;19.10;;;;;;;9.29;47.21;103382.16;4984128;28;20059;-81
2022/03/21 09:06:37;;;;;;;21.35;19.05;;;;;;;8.75;47.14;103276.47;4968016;28;20149;-83
2022/03/21 09:09:04;;;;;;;24.73;17.38;;;;;;;9.38;46.59;103382.66;4967127;28;20042;-81
2022/03/21 09:11:31;;;;;;;22.02;19.73;;;;;;;9.47;47.12;103377.94;4966905;28;20227;-81
2022/03/21 09:13:58;;;;;;;21.80;19.48;;;;;;;9.69;46.78;103392.03;4966538;28;20054;-82
2022/03/21 09:16:24;;;;;;;20.58;18.38;;;;;;;9.74;47.00;103384.75;4971218;28;20082;-82
2022/03/21 09:18:51;;;;;;;21.63;17.60;;;;;;;9.58;46.08;103336.75;4987043;28;20050;-82
2022/03/21 09:21:18;;;;;;;19.52;17.48;;;;;;;9.72;46.32;103353.91;4986043;28;20054;-82
2022/03/21 09:23:45;;;;;;;18.70;16.77;;;;;;;9.72;46.33;103324.72;4986419;28;20386;-83
2022/03/21 09:26:11;;;;;;;20.83;17.55;;;;;;;10.15;45.25;103368.03;4986532;28;20141;-82
2022/03/21 09:28:43;;;;;;;18.63;16.63;;;;;;;10.35;45.67;103376.00;4986724;28;20060;-82
2022/03/21 09:31:14;;;;;;;19.63;16.90;;;;;;;10.46;44.27;103376.41;4986801;28;20042;-82
2022/03/21 09:34:01;;;;;;;18.50;16.50;;;;;;;10.34;45.21;103325.63;4986526;28;20057;-80
2022/03/21 09:36:28;;;;;;;20.85;18.38;;;;;;;10.54;45.19;103341.53;4987950;28;20058;-82
2022/03/21 09:38:55;;;;;;;26.85;17.73;;;;;;;10.51;44.18;103308.91;4986160;28;20058;-83
2022/03/21 09:41:26;;;;;;;20.00;17.90;;;;;;;10.55;44.36;103290.13;4987435;28;20500;-82
2022/03/21 09:43:55;;;;;;;20.73;18.48;;;;;;;10.04;43.45;103167.63;4987738;28;20092;-81
2022/03/21 09:46:21;;;;;;;26.30;17.00;;;;;;;11.08;43.09;103310.66;4989797;28;20047;-83
2022/03/21 09:48:51;;;;;;;18.40;15.45;;;;;;;11.40;42.55;103329.50;4990667;28;20054;-81
2022/03/21 09:51:21;;;;;;;12.43;11.23;;;;;;;11.59;40.41;103320.63;4989422;28;20061;-82
2022/03/21 09:53:53;;;;;;;14.80;12.15;;;;;;;11.89;40.67;103371.47;4989374;28;20137;-82
2022/03/21 09:56:21;;;;;;;18.33;13.60;;;;;;;12.04;39.83;103365.38;4991002;28;20056;-83
2022/03/21 09:58:48;;;;;;;13.30;11.80;;;;;;;11.97;39.89;103340.00;4989360;28;20141;-82
2022/03/21 10:01:16;;;;;;;11.93;10.77;;;;;;;12.17;39.13;103369.13;4989251;28;20071;-83
2022/03/21 10:03:44;;;;;;;13.13;11.90;;;;;;;12.35;38.20;103353.13;4986934;28;20077;-83
2022/03/21 10:06:34;;;;;;;13.98;11.60;;;;;;;12.52;37.40;103363.72;4987690;28;20054;-82
2022/03/21 10:09:13;;;;;;;15.82;12.13;;;;;;;12.82;35.36;103365.72;4990036;28;20492;-83
2022/03/21 10:11:48;;;;;;;15.23;12.88;;;;;;;12.10;36.59;103239.91;4989589;28;20398;-83
2022/03/21 10:14:28;;;;;;;14.60;13.13;;;;;;;12.45;35.77;103298.44;4989282;28;20496;-82
2022/03/21 10:17:01;;;;;;;14.50;12.95;;;;;;;12.69;35.86;103312.19;4981195;28;20047;-83
2022/03/21 10:19:41;;;;;;;14.73;12.55;;;;;;;13.08;34.90;103350.06;4986470;28;20074;-83
2022/03/21 10:22:12;;;;;;;13.82;12.43;;;;;;;13.01;35.86;103312.19;4969623;28;20141;-82
2022/03/21 10:24:44;;;;;;;13.82;11.15;;;;;;;13.49;35.17;103357.56;4969742;28;20398;-83
2022/03/21 10:27:34;;;;;;;10.95;9.82;;;;;;;13.51;32.67;103358.34;4969918;28;20053;-82
2022/03/21 10:30:24;;;;;;;11.38;9.98;;;;;;;13.11;31.74;103248.56;4987214;28;20137;-81
2022/03/21 10:32:54;;;;;;;11.82;9.90;;;;;;;13.44;31.44;103309.78;4976251;28;20109;-82
2022/03/21 10:35:31;;;;;;;10.73;9.45;;;;;;;12.82;30.46;103166.63;4992458;28;20054;-82
2022/03/21 10:38:00;;;;;;;10.95;9.98;;;;;;;13.90;31.28;103339.97;4975560;28;20082;-82
2022/03/21 10:40:30;;;;;;;11.98;10.70;;;;;;;14.17;30.32;103341.94;4971134;28;20047;-83
2022/03/21 10:43:00;;;;;;;12.00;9.98;;;;;;;14.38;31.05;103336.25;4969801;28;20134;-82
2022/03/21 10:45:46;;;;;;;10.70;9.60;;;;;;;14.33;29.88;103318.66;4985339;28;20419;-83
2022/03/21 10:48:19;;;;;;;11.10;10.00;;;;;;;14.58;30.92;103335.88;4970160;28;20055;-83
2022/03/21 10:50:48;;;;;;;10.73;9.73;;;;;;;14.21;31.37;103230.41;4987040;28;20050;-83
2022/03/21 10:53:22;;;;;;;11.38;10.23;;;;;;;14.89;31.22;103324.09;4991280;28;20086;-82
2022/03/21 10:55:58;;;;;;;12.98;10.70;;;;;;;14.93;29.97;103309.59;4974819;28;20050;-82
2022/03/21 10:58:42;;;;;;;12.02;10.13;;;;;;;14.87;29.30;103306.44;4975957;28;20050;-81
2022/03/21 11:01:14;;;;;;;11.63;9.43;;;;;;;15.08;28.89;103315.75;4991374;28;20477;-81
2022/03/21 11:03:46;;;;;;;11.02;9.75;;;;;;;14.71;29.39;103245.06;4938428;29;20083;-82
2022/03/21 11:06:14;;;;;;;14.98;10.68;;;;;;;15.24;29.29;103296.84;4939316;29;20060;-84
2022/03/21 11:08:44;;;;;;;10.23;9.20;;;;;;;14.26;27.89;103119.59;4942911;29;20059;-79
2022/03/21 11:11:11;;;;;;;10.88;9.88;;;;;;;14.40;28.80;103123.22;4943396;29;20082;-82
2022/03/21 11:13:43;;;;;;;11.63;10.23;;;;;;;15.11;27.87;103213.88;4933785;29;20099;-80
2022/03/21 11:16:16;;;;;;;11.02;9.30;;;;;;;14.99;26.81;103201.31;4934512;29;20062;-83
2022/03/21 11:18:51;;;;;;;11.15;10.05;;;;;;;15.65;27.64;103292.38;4949739;29;20067;-81
2022/03/21 11:21:20;;;;;;;11.80;10.60;;;;;;;15.87;27.63;103281.94;4949727;29;20158;-83
2022/03/21 11:23:48;;;;;;;11.65;10.30;;;;;;;15.89;28.28;103258.56;4949690;29;20126;-82
2022/03/21 11:26:33;;;;;;;12.10;8.98;;;;;;;15.77;26.61;103192.47;4949445;28;20065;-84
2022/03/21 11:29:24;;;;;;;10.63;9.50;;;;;;;16.44;26.29;103273.44;4949497;29;20114;-83
2022/03/21 11:32:24;;;;;;;10.55;9.52;;;;;;;16.59;27.32;103266.13;4949897;29;20134;-83
2022/03/21 11:34:56;;;;;;;10.55;8.85;;;;;;;15.67;26.55;103106.53;4938123;29;20063;-83
2022/03/21 11:37:29;;;;;;;11.00;9.90;;;;;;;16.66;25.82;103271.91;4950285;28;20062;-81
2022/03/21 11:40:26;;;;;;;11.30;9.90;;;;;;;16.65;26.00;103264.81;4950425;28;20048;-82
2022/03/21 11:42:56;;;;;;;9.93;8.93;;;;;;;16.18;26.14;103196.72;4949716;29;20224;-83
2022/03/21 11:45:27;;;;;;;11.10;9.60;;;;;;;16.23;25.82;103186.53;4950380;28;20102;-82